createdAt,value
2022-08-24T00:02:06.619Z,1.00
2022-08-24T00:04:35.857Z,1.00
2022-08-24T00:07:06.109Z,1.00
2022-08-24T00:09:54.566Z,1.00
2022-08-24T00:12:23.224Z,1.00
2022-08-24T00:14:52.016Z,1.00
2022-08-24T00:17:21.362Z,1.00
2022-08-24T00:19:49.939Z,1.00
2022-08-24T00:22:18.428Z,1.00
2022-08-24T00:24:46.792Z,1.00
2022-08-24T00:27:15.283Z,1.00
2022-08-24T00:29:43.719Z,1.00
2022-08-24T00:32:12.070Z,1.00
2022-08-24T00:34:40.508Z,1.00
2022-08-24T00:37:14.377Z,1.00
2022-08-24T00:39:43.494Z,1.00
2022-08-24T00:42:12.324Z,1.00
2022-08-24T00:44:40.688Z,1.00
2022-08-24T00:47:28.471Z,1.00
2022-08-24T00:50:07.192Z,1.00
2022-08-24T00:52:48.152Z,1.00
2022-08-24T00:55:24.154Z,1.00
2022-08-24T00:57:56.996Z,1.00
2022-08-24T01:00:29.366Z,1.00
2022-08-24T01:03:05.108Z,1.00
2022-08-24T01:05:35.011Z,1.00
2022-08-24T01:08:05.381Z,1.00
2022-08-24T01:10:38.812Z,1.00
2022-08-24T01:13:09.989Z,1.00
2022-08-24T01:15:41.574Z,1.00
2022-08-24T01:18:35.674Z,1.00
2022-08-24T01:21:28.165Z,1.00
2022-08-24T01:24:03.576Z,1.00
2022-08-24T01:27:01.655Z,1.00
2022-08-24T01:29:32.555Z,1.00
2022-08-24T01:32:02.020Z,1.00
2022-08-24T01:34:30.793Z,1.00
2022-08-24T01:37:01.038Z,1.00
2022-08-24T01:39:44.965Z,1.00
2022-08-24T01:42:15.231Z,1.00
2022-08-24T01:44:46.820Z,1.00
2022-08-24T01:47:17.219Z,1.00
2022-08-24T01:49:48.228Z,1.00
2022-08-24T01:52:20.940Z,1.00
2022-08-24T01:54:49.554Z,1.00
2022-08-24T01:57:19.054Z,1.00
2022-08-24T01:59:47.489Z,1.00
2022-08-24T02:02:23.331Z,1.00
2022-08-24T02:04:51.754Z,1.00
2022-08-24T02:07:20.507Z,1.00
2022-08-24T02:09:49.337Z,1.00
2022-08-24T02:12:18.621Z,1.00
2022-08-24T02:14:47.105Z,1.00
2022-08-24T02:17:15.853Z,1.00
2022-08-24T02:19:44.810Z,1.00
2022-08-24T02:22:13.341Z,1.00
2022-08-24T02:24:41.756Z,1.00
2022-08-24T02:27:10.382Z,1.00
2022-08-24T02:29:38.952Z,1.00
2022-08-24T02:32:08.159Z,1.00
2022-08-24T02:34:36.563Z,1.00
2022-08-24T02:37:05.195Z,1.00
2022-08-24T02:39:34.123Z,1.00
2022-08-24T02:42:02.660Z,1.00
2022-08-24T02:44:31.041Z,1.00
2022-08-24T02:46:59.515Z,1.00
2022-08-24T02:49:28.238Z,1.00
2022-08-24T02:51:56.719Z,1.00
2022-08-24T02:54:25.215Z,1.00
2022-08-24T02:56:53.885Z,1.00
2022-08-24T02:59:23.157Z,1.00
2022-08-24T03:01:51.806Z,1.00
2022-08-24T03:04:21.610Z,1.00
2022-08-24T03:06:50.067Z,1.00
2022-08-24T03:09:19.432Z,1.00
2022-08-24T03:11:47.838Z,1.00
2022-08-24T03:14:16.699Z,1.00
2022-08-24T03:16:45.395Z,1.00
2022-08-24T03:19:14.532Z,1.00
2022-08-24T03:21:44.451Z,1.00
2022-08-24T03:24:12.943Z,1.00
2022-08-24T03:26:44.262Z,1.00
2022-08-24T03:29:13.225Z,1.00
2022-08-24T03:31:41.698Z,1.00
2022-08-24T03:34:11.031Z,1.00
2022-08-24T03:36:39.667Z,1.00
2022-08-24T03:39:08.568Z,1.00
2022-08-24T03:41:37.243Z,1.00
2022-08-24T03:44:06.239Z,1.00
2022-08-24T03:46:37.956Z,1.00
2022-08-24T03:49:11.832Z,1.00
2022-08-24T03:51:40.583Z,1.00
2022-08-24T03:54:10.419Z,1.00
2022-08-24T03:56:39.154Z,1.00
2022-08-24T03:59:10.059Z,1.00
2022-08-24T04:01:39.693Z,1.00
2022-08-24T04:04:08.097Z,1.00
2022-08-24T04:06:36.619Z,1.00
2022-08-24T04:09:06.514Z,1.00
2022-08-24T04:11:39.406Z,1.00
2022-08-24T04:14:20.322Z,1.00
2022-08-24T04:16:57.591Z,1.00
2022-08-24T04:19:26.777Z,1.00
2022-08-24T04:21:58.269Z,1.00
2022-08-24T04:24:28.004Z,1.00
2022-08-24T04:26:56.792Z,1.00
2022-08-24T04:29:25.167Z,1.00
2022-08-24T04:31:54.289Z,1.00
2022-08-24T04:34:22.920Z,1.00
2022-08-24T04:36:51.323Z,1.00
2022-08-24T04:39:19.871Z,1.00
2022-08-24T04:41:50.480Z,1.00
2022-08-24T04:44:20.012Z,1.00
2022-08-24T04:46:48.418Z,1.00
2022-08-24T04:49:16.818Z,1.00
2022-08-24T04:51:45.280Z,1.00
2022-08-24T04:54:13.797Z,1.00
2022-08-24T04:56:42.158Z,1.00
2022-08-24T04:59:10.557Z,1.00
2022-08-24T05:01:39.018Z,1.00
2022-08-24T05:04:07.495Z,1.00
2022-08-24T05:06:36.135Z,1.00
2022-08-24T05:09:06.393Z,1.00
2022-08-24T05:11:36.709Z,1.00
2022-08-24T05:14:05.272Z,1.00
2022-08-24T05:16:38.527Z,1.00
2022-08-24T05:19:07.972Z,1.00
2022-08-24T05:21:36.605Z,1.00
2022-08-24T05:24:05.483Z,1.00
2022-08-24T05:26:33.929Z,1.00
2022-08-24T05:29:04.148Z,1.00
2022-08-24T05:31:34.249Z,1.00
2022-08-24T05:34:03.869Z,1.00
2022-08-24T05:36:35.247Z,1.00
2022-08-24T05:39:11.202Z,1.00
2022-08-24T05:41:44.773Z,1.00
2022-08-24T05:44:15.025Z,1.00
2022-08-24T05:46:44.188Z,1.00
2022-08-24T05:49:13.469Z,1.00
2022-08-24T05:51:43.456Z,1.00
2022-08-24T05:54:14.529Z,1.00
2022-08-24T05:56:43.461Z,1.00
2022-08-24T05:59:12.540Z,1.00
2022-08-24T06:01:45.294Z,1.00
2022-08-24T06:04:14.144Z,1.00
2022-08-24T06:06:43.608Z,1.00
2022-08-24T06:09:16.986Z,1.00
2022-08-24T06:11:47.752Z,1.00
2022-08-24T06:14:18.507Z,1.00
2022-08-24T06:16:48.607Z,1.00
2022-08-24T06:19:19.921Z,1.00
2022-08-24T06:21:51.096Z,1.00
2022-08-24T06:24:41.318Z,1.00
2022-08-24T06:27:24.900Z,1.00
2022-08-24T06:30:07.095Z,1.00
2022-08-24T06:32:35.578Z,1.00
2022-08-24T06:35:04.275Z,1.00
2022-08-24T06:37:32.743Z,1.00
2022-08-24T06:40:01.250Z,1.00
2022-08-24T06:42:30.217Z,1.00
2022-08-24T06:44:58.720Z,1.00
2022-08-24T06:47:27.228Z,1.00
2022-08-24T06:49:55.691Z,1.00
2022-08-24T06:52:24.123Z,1.00
2022-08-24T06:54:54.040Z,1.00
2022-08-24T06:57:22.796Z,1.00
2022-08-24T06:59:51.239Z,1.00
2022-08-24T07:02:20.232Z,1.00
2022-08-24T07:04:49.091Z,1.00
2022-08-24T07:07:18.124Z,1.00
2022-08-24T07:09:46.557Z,1.00
2022-08-24T07:12:14.943Z,1.00
2022-08-24T07:14:44.008Z,1.00
2022-08-24T07:17:12.442Z,1.00
2022-08-24T07:19:40.859Z,1.00
2022-08-24T07:22:09.325Z,1.00
2022-08-24T07:24:38.848Z,1.00
2022-08-24T07:27:07.536Z,1.00
2022-08-24T07:30:04.818Z,1.00
2022-08-24T07:32:24.459Z,1.00
2022-08-24T07:34:52.835Z,1.00
2022-08-24T07:37:21.354Z,1.00
2022-08-24T07:39:49.824Z,1.00
2022-08-24T07:42:26.941Z,1.00
2022-08-24T07:44:59.812Z,1.00
2022-08-24T07:47:38.468Z,1.00
2022-08-24T07:50:08.516Z,1.00
2022-08-24T07:52:36.903Z,1.00
2022-08-24T07:55:06.441Z,1.00
2022-08-24T07:57:35.745Z,1.00
2022-08-24T08:00:05.166Z,1.00
2022-08-24T08:02:36.346Z,1.00
2022-08-24T08:05:06.152Z,1.00
2022-08-24T08:07:34.725Z,1.00
2022-08-24T08:10:04.200Z,1.00
2022-08-24T08:12:32.667Z,1.00
2022-08-24T08:15:01.149Z,1.00
2022-08-24T08:17:29.596Z,1.00
2022-08-24T08:19:58.068Z,1.00
2022-08-24T08:22:52.386Z,1.00
2022-08-24T08:25:20.897Z,3.40
2022-08-24T08:27:49.264Z,3.20
2022-08-24T08:30:18.032Z,4.90
2022-08-24T08:32:47.175Z,2.60
2022-08-24T08:35:15.790Z,1.00
2022-08-24T08:37:44.286Z,4.10
2022-08-24T08:40:34.109Z,4.80
2022-08-24T08:43:11.336Z,9.90
2022-08-24T08:45:56.467Z,15.30
2022-08-24T08:48:54.184Z,16.40
2022-08-24T08:51:49.309Z,17.20
2022-08-24T08:54:34.775Z,26.00
2022-08-24T08:57:34.602Z,23.60
2022-08-24T09:00:15.632Z,32.90
2022-08-24T09:03:18.366Z,36.90
2022-08-24T09:06:38.567Z,46.00
2022-08-24T09:09:25.197Z,50.10
2022-08-24T09:11:53.694Z,62.20
2022-08-24T09:14:41.489Z,67.60
2022-08-24T09:17:34.767Z,72.20
2022-08-24T09:20:03.366Z,76.60
2022-08-24T09:22:41.840Z,80.60
2022-08-24T09:25:37.292Z,84.20
2022-08-24T09:28:29.892Z,85.10
2022-08-24T09:31:10.494Z,83.00
2022-08-24T09:33:46.527Z,84.70
2022-08-24T09:36:25.135Z,84.80
2022-08-24T09:39:11.397Z,88.00
2022-08-24T09:42:02.541Z,86.20
2022-08-24T09:44:52.020Z,88.00
2022-08-24T09:47:41.756Z,88.20
2022-08-24T09:50:22.135Z,90.40
2022-08-24T09:53:13.564Z,92.30
2022-08-24T09:55:53.750Z,93.00
2022-08-24T09:58:22.327Z,93.30
2022-08-24T10:00:56.957Z,93.30
2022-08-24T10:03:56.152Z,96.20
2022-08-24T10:06:49.453Z,98.00
2022-08-24T10:09:51.608Z,99.90
2022-08-24T10:12:29.207Z,99.70
2022-08-24T10:15:11.837Z,99.90
2022-08-24T10:17:43.416Z,99.90
2022-08-24T10:20:51.048Z,99.90
2022-08-24T10:23:37.637Z,99.90
2022-08-24T10:26:19.683Z,99.90
2022-08-24T10:29:13.992Z,99.90
2022-08-24T10:32:09.380Z,99.90
2022-08-24T10:35:04.022Z,99.90
2022-08-24T10:38:20.612Z,99.90
2022-08-24T10:40:55.191Z,99.90
2022-08-24T10:43:35.462Z,99.90
2022-08-24T10:46:19.813Z,99.90
2022-08-24T10:49:00.771Z,99.90
2022-08-24T10:51:51.158Z,99.90
2022-08-24T10:54:21.864Z,99.90
2022-08-24T10:57:11.579Z,99.90
2022-08-24T10:59:49.908Z,99.90
2022-08-24T11:02:35.657Z,99.90
2022-08-24T11:05:12.222Z,99.90
2022-08-24T11:08:01.838Z,99.90
2022-08-24T11:10:35.023Z,99.90
2022-08-24T11:13:23.864Z,99.90
2022-08-24T11:15:59.092Z,99.90
2022-08-24T11:18:46.848Z,99.90
2022-08-24T11:21:33.955Z,99.90
2022-08-24T11:24:19.019Z,99.90
2022-08-24T11:26:59.543Z,99.90
2022-08-24T11:29:48.062Z,99.90
2022-08-24T11:32:30.164Z,99.90
2022-08-24T11:35:05.627Z,99.90
2022-08-24T11:37:38.251Z,99.90
2022-08-24T11:40:10.541Z,99.90
2022-08-24T11:43:09.964Z,99.90
2022-08-24T11:45:48.520Z,99.90
2022-08-24T11:48:44.635Z,99.90
2022-08-24T11:51:29.963Z,99.90
2022-08-24T11:53:58.397Z,99.90
2022-08-24T11:56:32.352Z,99.90
2022-08-24T11:59:28.420Z,99.90
2022-08-24T12:02:05.139Z,99.90
2022-08-24T12:05:07.867Z,99.90
2022-08-24T12:07:51.034Z,99.90
2022-08-24T12:10:38.395Z,99.90
2022-08-24T12:13:17.038Z,99.90
2022-08-24T12:15:51.951Z,99.90
2022-08-24T12:18:27.476Z,99.90
2022-08-24T12:20:57.279Z,99.90
2022-08-24T12:24:06.409Z,99.90
2022-08-24T12:26:48.358Z,99.90
2022-08-24T12:29:42.696Z,99.90
2022-08-24T12:32:17.394Z,99.90
2022-08-24T12:35:14.618Z,99.90
2022-08-24T12:37:54.840Z,99.90
2022-08-24T12:40:44.209Z,99.90
2022-08-24T12:43:32.772Z,99.90
2022-08-24T12:46:02.292Z,99.90
2022-08-24T12:48:54.994Z,99.90
2022-08-24T12:51:26.429Z,99.90
2022-08-24T12:54:08.759Z,99.90
2022-08-24T12:56:49.258Z,99.90
2022-08-24T12:59:17.658Z,99.90
2022-08-24T13:02:08.903Z,99.90
2022-08-24T13:04:53.706Z,99.90
2022-08-24T13:07:50.159Z,99.90
2022-08-24T13:10:24.545Z,99.90
2022-08-24T13:13:11.266Z,99.90
2022-08-24T13:15:39.754Z,99.90
2022-08-24T13:18:11.437Z,99.90
2022-08-24T13:20:46.099Z,99.90
2022-08-24T13:23:25.355Z,99.90
2022-08-24T13:26:00.810Z,99.90
2022-08-24T13:28:40.076Z,99.90
2022-08-24T13:31:14.896Z,99.90
2022-08-24T13:33:58.599Z,99.90
2022-08-24T13:36:35.731Z,99.90
2022-08-24T13:39:22.261Z,99.90
2022-08-24T13:42:12.272Z,99.90
2022-08-24T13:44:46.411Z,99.90
2022-08-24T13:47:34.481Z,99.90
2022-08-24T13:50:06.317Z,99.90
2022-08-24T13:53:12.408Z,99.90
2022-08-24T13:55:53.922Z,99.90
2022-08-24T13:58:40.141Z,99.90
2022-08-24T14:01:39.723Z,99.90
2022-08-24T14:04:55.962Z,99.90
2022-08-24T14:08:14.340Z,99.90
2022-08-24T14:10:45.555Z,99.90
2022-08-24T14:13:26.661Z,99.90
2022-08-24T14:16:33.776Z,99.90
2022-08-24T14:19:38.952Z,99.90
2022-08-24T14:22:14.193Z,99.90
2022-08-24T14:25:05.007Z,99.90
2022-08-24T14:27:47.052Z,99.90
2022-08-24T14:30:23.428Z,99.90
2022-08-24T14:33:28.370Z,99.90
2022-08-24T14:36:40.384Z,99.90
2022-08-24T14:39:29.002Z,99.90
2022-08-24T14:42:33.827Z,99.90
2022-08-24T14:45:11.358Z,99.90
2022-08-24T14:48:38.943Z,99.90
2022-08-24T14:51:13.446Z,99.90
2022-08-24T14:54:08.217Z,99.90
2022-08-24T14:56:54.616Z,99.90
2022-08-24T14:59:44.266Z,99.90
2022-08-24T15:02:45.757Z,99.90
2022-08-24T15:05:25.871Z,99.90
2022-08-24T15:07:59.671Z,99.90
2022-08-24T15:10:51.389Z,99.90
2022-08-24T15:13:57.286Z,99.90
2022-08-24T15:16:40.920Z,99.60
2022-08-24T15:19:27.613Z,98.80
2022-08-24T15:22:30.750Z,95.50
2022-08-24T15:25:36.133Z,93.20
2022-08-24T15:28:12.974Z,96.00
2022-08-24T15:30:54.043Z,92.80
2022-08-24T15:33:22.675Z,77.60
2022-08-24T15:36:05.014Z,70.70
2022-08-24T15:38:36.751Z,62.20
2022-08-24T15:41:23.574Z,50.30
2022-08-24T15:43:57.706Z,21.40
2022-08-24T15:46:46.248Z,2.80
2022-08-24T15:49:18.299Z,1.00
2022-08-24T15:52:02.679Z,1.00
2022-08-24T15:54:42.223Z,1.00
2022-08-24T15:57:30.840Z,1.00
2022-08-24T16:00:17.337Z,1.00
2022-08-24T16:02:45.909Z,1.00
2022-08-24T16:05:22.537Z,1.00
2022-08-24T16:08:06.348Z,1.00
2022-08-24T16:10:56.053Z,1.00
2022-08-24T16:13:29.353Z,1.00
2022-08-24T16:16:00.330Z,1.00
2022-08-24T16:18:52.169Z,1.00
2022-08-24T16:21:26.641Z,1.00
2022-08-24T16:24:02.311Z,1.00
2022-08-24T16:26:47.991Z,1.00
2022-08-24T16:29:38.403Z,1.00
2022-08-24T16:32:22.730Z,1.00
2022-08-24T16:35:11.861Z,1.00
2022-08-24T16:37:40.656Z,1.00
2022-08-24T16:40:10.493Z,1.00
2022-08-24T16:42:40.862Z,1.00
2022-08-24T16:45:13.240Z,1.00
2022-08-24T16:47:41.753Z,1.00
2022-08-24T16:50:10.577Z,1.00
2022-08-24T16:52:38.943Z,1.00
2022-08-24T16:55:08.288Z,1.00
2022-08-24T16:57:38.314Z,1.00
2022-08-24T17:00:16.003Z,1.00
2022-08-24T17:02:46.035Z,1.00
2022-08-24T17:05:15.033Z,1.00
2022-08-24T17:07:44.751Z,1.00
2022-08-24T17:10:16.914Z,1.00
2022-08-24T17:12:45.534Z,1.00
2022-08-24T17:15:17.020Z,1.00
2022-08-24T17:17:56.122Z,1.00
2022-08-24T17:20:24.717Z,1.00
2022-08-24T17:22:53.125Z,1.00
2022-08-24T17:25:21.560Z,1.00
2022-08-24T17:27:50.143Z,1.00
2022-08-24T17:30:19.341Z,1.00
2022-08-24T17:32:48.967Z,1.00
2022-08-24T17:35:18.449Z,1.00
2022-08-24T17:37:46.882Z,1.00
2022-08-24T17:40:18.903Z,1.00
2022-08-24T17:42:51.117Z,1.00
2022-08-24T17:45:23.686Z,1.00
2022-08-24T17:47:53.259Z,1.00
2022-08-24T17:50:24.963Z,1.00
2022-08-24T17:52:59.176Z,1.00
2022-08-24T17:55:29.355Z,1.00
2022-08-24T17:57:58.792Z,1.00
2022-08-24T18:00:27.281Z,1.00
2022-08-24T18:02:55.915Z,1.00
2022-08-24T18:05:24.626Z,1.00
2022-08-24T18:07:55.983Z,1.00
2022-08-24T18:10:28.805Z,1.00
2022-08-24T18:13:01.739Z,1.00
2022-08-24T18:15:35.893Z,1.00
2022-08-24T18:18:08.789Z,1.00
2022-08-24T18:20:40.790Z,1.00
2022-08-24T18:23:12.069Z,1.00
2022-08-24T18:25:48.984Z,1.00
2022-08-24T18:28:18.897Z,1.00
2022-08-24T18:30:47.585Z,1.00
2022-08-24T18:33:16.268Z,1.00
2022-08-24T18:35:46.443Z,1.00
2022-08-24T18:38:15.042Z,1.00
2022-08-24T18:40:52.294Z,1.00
2022-08-24T18:43:23.843Z,1.00
2022-08-24T18:45:53.449Z,1.00
2022-08-24T18:48:22.458Z,1.00
2022-08-24T18:50:51.926Z,1.00
2022-08-24T18:53:20.992Z,1.00
2022-08-24T18:55:50.155Z,1.00
2022-08-24T18:58:18.572Z,1.00
2022-08-24T19:00:47.818Z,1.00
2022-08-24T19:03:23.368Z,1.00
2022-08-24T19:05:51.813Z,1.00
2022-08-24T19:08:20.246Z,1.00
2022-08-24T19:10:48.866Z,1.00
2022-08-24T19:13:19.276Z,1.00
2022-08-24T19:15:49.770Z,1.00
2022-08-24T19:18:20.219Z,1.00
2022-08-24T19:20:51.408Z,1.00
2022-08-24T19:23:32.020Z,1.00
2022-08-24T19:26:01.199Z,1.00
2022-08-24T19:28:30.163Z,1.00
2022-08-24T19:31:02.349Z,1.00
2022-08-24T19:33:37.803Z,1.00
2022-08-24T19:36:07.088Z,1.00
2022-08-24T19:38:35.656Z,1.00
2022-08-24T19:41:11.186Z,1.00
2022-08-24T19:44:01.891Z,1.00
2022-08-24T19:46:30.363Z,1.00
2022-08-24T19:48:58.975Z,1.00
2022-08-24T19:51:27.860Z,1.00
2022-08-24T19:53:56.256Z,1.00
2022-08-24T19:56:25.038Z,1.00
2022-08-24T19:58:59.585Z,1.00
2022-08-24T20:01:37.442Z,1.00
2022-08-24T20:04:07.784Z,1.00
2022-08-24T20:06:38.284Z,1.00
2022-08-24T20:09:07.049Z,1.00
2022-08-24T20:11:35.888Z,1.00
2022-08-24T20:14:04.314Z,1.00
2022-08-24T20:16:39.540Z,1.00
2022-08-24T20:19:08.087Z,1.00
2022-08-24T20:21:36.711Z,1.00
2022-08-24T20:24:05.668Z,1.00
2022-08-24T20:26:41.517Z,1.00
2022-08-24T20:29:11.263Z,1.00
2022-08-24T20:31:40.985Z,1.00
2022-08-24T20:34:09.554Z,1.00
2022-08-24T20:36:43.818Z,1.00
2022-08-24T20:39:14.126Z,1.00
2022-08-24T20:41:42.503Z,1.00
2022-08-24T20:44:11.407Z,1.00
2022-08-24T20:46:40.835Z,1.00
2022-08-24T20:49:16.998Z,1.00
2022-08-24T20:51:47.887Z,1.00
2022-08-24T20:54:16.372Z,1.00
2022-08-24T20:56:45.887Z,1.00
2022-08-24T20:59:15.973Z,1.00
2022-08-24T21:01:44.391Z,1.00
2022-08-24T21:04:13.387Z,1.00
2022-08-24T21:06:45.743Z,1.00
2022-08-24T21:09:14.533Z,1.00
2022-08-24T21:11:44.215Z,1.00
2022-08-24T21:14:13.663Z,1.00
2022-08-24T21:16:44.401Z,1.00
2022-08-24T21:19:16.976Z,1.00
2022-08-24T21:21:47.531Z,1.00
2022-08-24T21:24:16.604Z,1.00
2022-08-24T21:26:45.411Z,1.00
2022-08-24T21:29:14.111Z,1.00
2022-08-24T21:32:02.389Z,1.00
2022-08-24T21:34:43.103Z,1.00
2022-08-24T21:37:17.196Z,1.00
2022-08-24T21:39:48.051Z,1.00
2022-08-24T21:42:20.011Z,1.00
2022-08-24T21:44:48.783Z,1.00
2022-08-24T21:47:18.320Z,1.00
2022-08-24T21:49:46.671Z,1.00
2022-08-24T21:52:15.113Z,1.00
2022-08-24T21:54:43.603Z,1.00
2022-08-24T21:57:12.327Z,1.00
2022-08-24T21:59:40.934Z,1.00
2022-08-24T22:02:10.776Z,1.00
2022-08-24T22:04:42.148Z,1.00
2022-08-24T22:07:13.273Z,1.00
2022-08-24T22:09:42.195Z,1.00
2022-08-24T22:12:10.751Z,1.00
2022-08-24T22:14:39.340Z,1.00
2022-08-24T22:17:07.910Z,1.00
2022-08-24T22:19:36.285Z,1.00
2022-08-24T22:22:04.783Z,1.00
2022-08-24T22:24:33.325Z,1.00
2022-08-24T22:27:01.692Z,1.00
2022-08-24T22:29:30.250Z,1.00
2022-08-24T22:31:58.885Z,1.00
2022-08-24T22:34:27.882Z,1.00
2022-08-24T22:37:00.171Z,1.00
2022-08-24T22:39:29.753Z,1.00
2022-08-24T22:41:58.681Z,1.00
2022-08-24T22:44:28.615Z,1.00
2022-08-24T22:47:02.317Z,1.00
2022-08-24T22:49:34.273Z,1.00
2022-08-24T22:52:03.704Z,1.00
2022-08-24T22:54:33.274Z,1.00
2022-08-24T22:57:03.287Z,1.00
2022-08-24T22:59:36.965Z,1.00
2022-08-24T23:02:12.722Z,1.00
2022-08-24T23:04:45.917Z,1.00
2022-08-24T23:07:15.943Z,1.00
2022-08-24T23:09:45.937Z,1.00
2022-08-24T23:12:18.501Z,1.00
2022-08-24T23:14:47.389Z,1.00
2022-08-24T23:17:15.772Z,1.00
2022-08-24T23:20:05.451Z,1.00
2022-08-24T23:22:41.515Z,1.00
2022-08-24T23:25:13.047Z,1.00
2022-08-24T23:27:43.634Z,1.00
2022-08-24T23:30:14.835Z,1.00
2022-08-24T23:32:44.479Z,1.00
2022-08-24T23:35:12.957Z,1.00
2022-08-24T23:37:41.712Z,1.00
2022-08-24T23:40:10.806Z,1.00
2022-08-24T23:42:39.219Z,1.00
2022-08-24T23:45:10.739Z,1.00
2022-08-24T23:47:40.619Z,1.00
2022-08-24T23:50:11.137Z,1.00
2022-08-24T23:52:40.426Z,1.00
2022-08-24T23:55:21.370Z,1.00
2022-08-24T23:57:50.997Z,1.00
